Time;durP1;ratioP1;P1;durP2;ratioP2;P2;SDS_P1;SDS_P2;PMS_P1;PMS_P2;Temp;Humidity;BMP_temperature;BMP_pressure;BME280_temperature;BME280_humidity;BME280_pressure;Samples;Min_cycle;Max_cycle;Signal;HPM_P1;HPM_P2
2023/05/24 00:00:12;;;;;;;14.73;3.70;;;10.60;99.90;;;;;;5007868;28;20057;-83
2023/05/24 00:02:58;;;;;;;23.20;5.65;;;10.60;99.90;;;;;;5009323;28;20050;-81
2023/05/24 00:05:45;;;;;;;24.50;4.80;;;10.60;99.90;;;;;;5008020;28;20084;-81
2023/05/24 00:08:33;;;;;;;29.45;6.13;;;10.60;99.90;;;;;;4979254;28;20057;-86
2023/05/24 00:11:19;;;;;;;22.90;4.50;;;10.60;99.90;;;;;;5009225;28;20050;-87
2023/05/24 00:14:06;;;;;;;20.83;4.68;;;10.60;99.90;;;;;;5009461;28;20136;-87
2023/05/24 00:16:52;;;;;;;25.13;4.88;;;10.50;99.90;;;;;;4994449;28;20447;-83
2023/05/24 00:19:39;;;;;;;30.90;5.10;;;10.50;99.90;;;;;;4990564;28;20085;-86
2023/05/24 00:22:25;;;;;;;23.85;5.60;;;10.50;99.90;;;;;;5010155;28;20049;-86
2023/05/24 00:25:11;;;;;;;32.00;4.40;;;10.50;99.90;;;;;;5008265;28;20049;-87
2023/05/24 00:27:57;;;;;;;20.73;3.88;;;10.40;99.90;;;;;;5013125;28;20491;-85
2023/05/24 00:30:43;;;;;;;19.92;3.88;;;10.40;99.90;;;;;;5024563;28;20084;-86
2023/05/24 00:33:29;;;;;;;23.88;4.45;;;10.40;99.90;;;;;;5028254;28;20053;-86
2023/05/24 00:36:15;;;;;;;20.13;4.30;;;10.50;99.90;;;;;;5029057;28;20425;-85
2023/05/24 00:39:01;;;;;;;26.13;5.32;;;10.50;99.90;;;;;;4990908;28;20063;-82
2023/05/24 00:41:48;;;;;;;20.27;4.03;;;10.40;99.90;;;;;;5011563;28;20057;-81
2023/05/24 00:44:34;;;;;;;31.75;4.25;;;10.40;99.90;;;;;;5012367;28;20053;-80
2023/05/24 00:47:21;;;;;;;16.90;3.90;;;10.40;99.90;;;;;;4993598;28;20050;-80
2023/05/24 00:50:11;;;;;;;17.48;4.07;;;10.40;99.90;;;;;;4988140;28;20053;-81
2023/05/24 00:53:01;;;;;;;26.17;4.28;;;10.40;99.90;;;;;;4997549;28;20065;-80
2023/05/24 00:55:47;;;;;;;19.70;4.38;;;10.50;99.90;;;;;;4992866;28;20050;-80
2023/05/24 00:58:34;;;;;;;24.65;3.80;;;10.50;99.90;;;;;;4994194;28;20116;-80
2023/05/24 01:01:24;;;;;;;20.17;4.25;;;10.50;99.90;;;;;;4993478;28;20054;-81
2023/05/24 01:04:11;;;;;;;28.23;4.18;;;10.50;99.90;;;;;;4993359;28;20115;-82
2023/05/24 01:07:03;;;;;;;18.77;4.15;;;10.60;99.90;;;;;;5011969;28;20057;-83
2023/05/24 01:10:20;;;;;;;24.30;4.32;;;10.60;99.90;;;;;;4993164;28;20418;-82
2023/05/24 01:13:09;;;;;;;16.75;3.50;;;10.60;99.90;;;;;;4986884;28;20056;-81
2023/05/24 01:16:14;;;;;;;19.33;4.20;;;10.60;99.90;;;;;;4994232;28;20068;-82
2023/05/24 01:19:06;;;;;;;21.83;5.20;;;10.60;99.90;;;;;;5009961;28;20104;-83
2023/05/24 01:22:21;;;;;;;28.15;4.60;;;10.60;99.90;;;;;;4993716;28;20483;-82
2023/05/24 01:25:17;;;;;;;20.38;4.70;;;10.60;99.90;;;;;;4993785;28;20080;-82
2023/05/24 01:28:04;;;;;;;21.58;4.13;;;10.60;99.90;;;;;;4993467;28;20046;-84
2023/05/24 01:30:51;;;;;;;14.05;4.25;;;10.60;99.90;;;;;;5011541;28;20140;-82
2023/05/24 01:33:43;;;;;;;24.52;4.07;;;10.50;99.90;;;;;;4994140;28;20060;-82
2023/05/24 01:36:29;;;;;;;25.50;3.90;;;10.50;99.90;;;;;;4992821;28;20069;-84
2023/05/24 01:39:16;;;;;;;21.63;4.75;;;10.50;99.90;;;;;;5010064;28;20053;-81
2023/05/24 01:42:33;;;;;;;28.35;5.72;;;10.60;99.90;;;;;;5010775;28;20050;-82
2023/05/24 01:45:28;;;;;;;26.35;4.65;;;10.60;99.90;;;;;;5011566;28;20053;-82
2023/05/24 01:48:47;;;;;;;28.45;4.30;;;10.50;99.90;;;;;;4993413;28;20062;-81
2023/05/24 01:51:43;;;;;;;19.50;3.50;;;10.60;99.90;;;;;;4941092;28;20057;-82
2023/05/24 01:54:33;;;;;;;25.77;4.55;;;10.60;99.90;;;;;;5011458;28;20053;-82
2023/05/24 01:57:21;;;;;;;21.35;4.55;;;10.60;99.90;;;;;;4993202;28;20046;-80
2023/05/24 02:00:09;;;;;;;30.85;5.47;;;10.50;99.90;;;;;;4974132;28;20055;-82
2023/05/24 02:02:56;;;;;;;27.70;4.97;;;10.50;99.90;;;;;;4991549;28;20054;-80
2023/05/24 02:05:44;;;;;;;18.92;4.43;;;10.50;99.90;;;;;;4990841;28;20133;-83
2023/05/24 02:08:32;;;;;;;28.30;4.40;;;10.50;99.90;;;;;;4991293;28;20058;-82
2023/05/24 02:11:18;;;;;;;24.38;4.55;;;10.50;99.90;;;;;;4991507;28;20055;-81
2023/05/24 02:14:04;;;;;;;22.08;3.85;;;10.50;99.90;;;;;;4973112;28;20058;-81
2023/05/24 02:16:50;;;;;;;23.83;4.55;;;10.50;99.90;;;;;;4974708;28;20487;-83
2023/05/24 02:19:36;;;;;;;27.23;4.45;;;10.50;99.90;;;;;;4991547;28;20054;-81
2023/05/24 02:22:22;;;;;;;19.20;3.92;;;10.50;99.90;;;;;;4992291;28;20061;-83
2023/05/24 02:25:08;;;;;;;25.30;4.30;;;10.60;99.90;;;;;;4991323;28;20266;-82
2023/05/24 02:27:55;;;;;;;17.02;4.88;;;10.50;99.90;;;;;;4972362;28;20050;-82
2023/05/24 02:30:43;;;;;;;26.70;4.53;;;10.60;99.90;;;;;;4990725;28;20046;-83
2023/05/24 02:33:29;;;;;;;19.13;3.17;;;10.50;99.90;;;;;;4990203;28;20602;-83
2023/05/24 02:36:15;;;;;;;19.50;4.38;;;10.50;99.90;;;;;;4991293;28;20066;-81
2023/05/24 02:39:02;;;;;;;19.80;4.18;;;10.60;99.90;;;;;;4973727;28;20058;-82
2023/05/24 02:41:49;;;;;;;21.20;3.67;;;10.60;99.90;;;;;;4960480;28;20069;-81
2023/05/24 02:44:35;;;;;;;20.27;3.78;;;10.60;99.90;;;;;;4990769;28;20473;-82
2023/05/24 02:47:21;;;;;;;20.63;4.07;;;10.60;99.90;;;;;;4959515;28;20054;-82
2023/05/24 02:50:07;;;;;;;23.27;3.70;;;10.60;99.90;;;;;;4972769;28;20603;-81
2023/05/24 02:52:54;;;;;;;19.92;4.57;;;10.60;99.90;;;;;;4990172;28;20884;-82
2023/05/24 02:55:42;;;;;;;20.27;4.32;;;10.60;99.90;;;;;;4990797;28;20050;-82
2023/05/24 02:58:29;;;;;;;15.85;3.75;;;10.60;99.90;;;;;;4980760;28;20100;-83
2023/05/24 03:01:15;;;;;;;24.40;3.85;;;10.60;99.90;;;;;;5009635;28;20145;-82
2023/05/24 03:04:01;;;;;;;19.63;3.63;;;10.60;99.90;;;;;;4991520;28;20054;-83
2023/05/24 03:06:47;;;;;;;20.10;3.63;;;10.60;99.90;;;;;;4991960;28;20057;-80
2023/05/24 03:09:33;;;;;;;21.30;3.88;;;10.60;99.90;;;;;;4994984;28;20074;-82
2023/05/24 03:12:19;;;;;;;20.15;3.80;;;10.60;99.90;;;;;;5009160;28;20128;-81
2023/05/24 03:15:07;;;;;;;21.02;4.40;;;10.60;99.90;;;;;;5008960;28;20065;-82
2023/05/24 03:17:53;;;;;;;24.67;4.18;;;10.70;99.90;;;;;;5008434;28;20521;-82
2023/05/24 03:20:39;;;;;;;19.35;4.38;;;10.70;99.90;;;;;;4994305;28;20053;-81
2023/05/24 03:23:25;;;;;;;16.95;3.97;;;10.70;99.90;;;;;;4991059;28;20058;-83
2023/05/24 03:26:14;;;;;;;24.23;3.90;;;10.70;99.90;;;;;;4979739;28;20062;-83
2023/05/24 03:29:00;;;;;;;34.08;5.50;;;10.70;99.90;;;;;;4992357;28;20057;-82
2023/05/24 03:31:46;;;;;;;23.88;4.80;;;10.70;99.90;;;;;;5009585;28;20058;-82
2023/05/24 03:34:32;;;;;;;20.17;4.15;;;10.70;99.90;;;;;;4992592;28;20168;-84
2023/05/24 03:37:18;;;;;;;34.13;6.13;;;10.80;99.90;;;;;;5009213;28;20402;-83
2023/05/24 03:40:05;;;;;;;17.63;5.22;;;10.70;99.90;;;;;;5008677;28;20056;-83
2023/05/24 03:42:51;;;;;;;20.95;4.03;;;10.70;99.90;;;;;;4992808;28;20077;-82
2023/05/24 03:45:37;;;;;;;24.60;5.53;;;10.70;99.90;;;;;;5007564;28;20088;-84
2023/05/24 03:48:23;;;;;;;29.10;5.65;;;10.70;99.90;;;;;;5008589;28;20093;-82
2023/05/24 03:51:13;;;;;;;19.17;3.58;;;10.80;99.90;;;;;;5010238;28;20124;-82
2023/05/24 03:53:59;;;;;;;21.15;4.35;;;10.70;99.90;;;;;;4992613;28;20057;-83
2023/05/24 03:56:45;;;;;;;18.48;4.30;;;10.70;99.90;;;;;;5008333;28;20062;-83
2023/05/24 03:59:31;;;;;;;19.70;4.15;;;10.60;99.90;;;;;;5012693;28;20082;-82
2023/05/24 04:02:17;;;;;;;21.65;4.43;;;10.60;99.90;;;;;;5012633;28;20053;-82
2023/05/24 04:05:09;;;;;;;21.02;3.83;;;10.60;99.90;;;;;;5012348;28;20050;-82
2023/05/24 04:07:55;;;;;;;18.58;3.65;;;10.60;99.90;;;;;;4994047;28;20050;-81
2023/05/24 04:10:41;;;;;;;21.40;4.45;;;10.60;99.90;;;;;;5011809;28;20053;-82
2023/05/24 04:13:27;;;;;;;15.30;3.88;;;10.70;99.90;;;;;;5012301;28;20054;-82
2023/05/24 04:16:13;;;;;;;24.77;4.15;;;10.70;99.90;;;;;;5012026;28;20057;-81
2023/05/24 04:19:00;;;;;;;18.02;3.67;;;10.70;99.90;;;;;;5010501;28;20241;-83
2023/05/24 04:21:46;;;;;;;20.65;4.57;;;10.80;99.90;;;;;;4994992;28;20137;-81
2023/05/24 04:24:32;;;;;;;26.35;4.38;;;10.80;99.90;;;;;;4994682;28;20148;-83
2023/05/24 04:27:19;;;;;;;22.75;4.00;;;10.80;99.90;;;;;;4994137;28;20513;-82
2023/05/24 04:30:06;;;;;;;17.75;4.60;;;10.90;99.90;;;;;;4982689;28;20070;-82
2023/05/24 04:32:52;;;;;;;11.20;3.78;;;10.90;99.90;;;;;;4997008;28;20057;-83
2023/05/24 04:35:39;;;;;;;20.40;4.05;;;10.90;99.90;;;;;;4993553;28;20058;-83
2023/05/24 04:38:28;;;;;;;31.17;5.28;;;10.90;99.90;;;;;;4993641;28;20090;-81
2023/05/24 04:41:14;;;;;;;24.23;4.78;;;10.90;99.90;;;;;;4994380;28;20069;-83
2023/05/24 04:44:01;;;;;;;16.23;4.03;;;10.90;99.90;;;;;;5012899;28;20054;-83
2023/05/24 04:46:47;;;;;;;19.17;4.25;;;11.00;99.90;;;;;;5011551;28;20453;-83
2023/05/24 04:49:33;;;;;;;19.50;4.00;;;11.00;99.90;;;;;;5011245;28;20570;-83
2023/05/24 04:52:19;;;;;;;26.75;5.38;;;11.00;99.90;;;;;;5011418;28;20058;-82
2023/05/24 04:55:06;;;;;;;19.75;4.68;;;10.90;99.90;;;;;;4987088;28;20082;-85
2023/05/24 04:57:52;;;;;;;16.50;4.38;;;10.90;99.90;;;;;;4978344;28;20085;-83
2023/05/24 05:00:38;;;;;;;16.77;4.28;;;10.90;99.90;;;;;;4994791;28;20050;-82
2023/05/24 05:03:25;;;;;;;19.15;3.90;;;11.00;99.90;;;;;;5010034;28;20561;-85
2023/05/24 05:06:11;;;;;;;16.48;4.30;;;11.00;99.90;;;;;;5011627;28;20081;-85
2023/05/24 05:08:57;;;;;;;19.48;3.95;;;11.00;99.90;;;;;;4993708;28;20057;-83
2023/05/24 05:11:45;;;;;;;20.35;3.92;;;11.00;99.90;;;;;;5010694;28;20359;-86
2023/05/24 05:14:31;;;;;;;21.90;4.20;;;11.10;99.90;;;;;;4993484;28;20075;-83
2023/05/24 05:17:17;;;;;;;20.60;4.18;;;11.10;99.90;;;;;;5010506;28;20049;-84
2023/05/24 05:20:04;;;;;;;20.73;4.15;;;11.10;99.90;;;;;;5005209;28;20096;-85
2023/05/24 05:22:50;;;;;;;29.08;4.70;;;11.10;99.90;;;;;;5010592;28;20054;-86
2023/05/24 05:25:36;;;;;;;17.08;3.50;;;11.20;99.90;;;;;;4993116;28;20058;-83
2023/05/24 05:28:22;;;;;;;14.23;3.60;;;11.10;99.90;;;;;;5010854;28;20042;-86
2023/05/24 05:31:08;;;;;;;23.25;5.43;;;11.20;99.90;;;;;;4980658;28;20517;-86
2023/05/24 05:33:54;;;;;;;18.92;3.67;;;11.20;99.90;;;;;;5010777;28;20050;-86
2023/05/24 05:36:41;;;;;;;19.33;3.95;;;11.20;99.90;;;;;;4981188;28;20057;-85
2023/05/24 05:39:27;;;;;;;17.58;3.92;;;11.10;99.90;;;;;;5011418;28;20054;-85
2023/05/24 05:42:13;;;;;;;22.00;4.38;;;11.20;99.90;;;;;;5011417;28;20056;-83
2023/05/24 05:44:59;;;;;;;14.48;3.65;;;11.20;99.90;;;;;;4993032;28;20049;-85
2023/05/24 05:47:45;;;;;;;17.75;4.07;;;11.20;99.90;;;;;;5011070;28;20052;-83
2023/05/24 05:50:31;;;;;;;18.55;4.10;;;11.20;99.90;;;;;;4992952;28;20107;-85
2023/05/24 05:53:17;;;;;;;23.83;4.88;;;11.30;99.90;;;;;;5011362;28;20471;-85
2023/05/24 05:56:04;;;;;;;18.55;4.32;;;11.30;99.90;;;;;;5010262;28;20056;-86
2023/05/24 05:58:50;;;;;;;15.10;3.40;;;11.30;99.90;;;;;;5008202;28;20152;-86
2023/05/24 06:01:36;;;;;;;15.27;3.35;;;11.30;99.90;;;;;;4993355;28;20061;-85
2023/05/24 06:04:22;;;;;;;21.40;3.67;;;11.40;99.90;;;;;;4993341;28;20061;-85
2023/05/24 06:07:08;;;;;;;13.27;3.47;;;11.40;99.90;;;;;;5009066;28;20058;-86
2023/05/24 06:09:54;;;;;;;20.15;4.80;;;11.50;99.90;;;;;;5009935;28;20049;-84
2023/05/24 06:12:40;;;;;;;13.75;2.95;;;11.50;99.90;;;;;;4993049;28;20064;-86
2023/05/24 06:15:26;;;;;;;20.60;4.50;;;11.60;99.90;;;;;;5010513;28;20052;-86
2023/05/24 06:18:14;;;;;;;17.23;3.95;;;11.70;99.90;;;;;;4992350;28;20058;-85
2023/05/24 06:21:00;;;;;;;21.17;5.07;;;11.70;99.90;;;;;;4993298;28;20056;-85
2023/05/24 06:23:46;;;;;;;16.40;3.53;;;11.70;99.90;;;;;;5009799;28;20133;-85
2023/05/24 06:26:32;;;;;;;15.13;3.40;;;11.80;99.90;;;;;;4992209;28;20133;-86
2023/05/24 06:29:19;;;;;;;26.15;3.95;;;11.90;99.90;;;;;;5009339;28;20058;-84
2023/05/24 06:32:05;;;;;;;19.58;4.38;;;11.90;99.90;;;;;;4992309;28;20604;-86
2023/05/24 06:34:51;;;;;;;20.70;5.22;;;12.00;99.90;;;;;;5010419;28;20452;-85
2023/05/24 06:37:37;;;;;;;16.98;3.67;;;12.00;99.90;;;;;;5009993;28;20129;-85
2023/05/24 06:40:23;;;;;;;14.77;3.90;;;12.00;99.90;;;;;;4991793;28;20533;-85
2023/05/24 06:43:09;;;;;;;22.52;4.80;;;12.00;99.90;;;;;;4993034;28;20050;-82
2023/05/24 06:45:56;;;;;;;20.52;3.92;;;12.00;99.90;;;;;;4993755;28;20505;-84
2023/05/24 06:48:42;;;;;;;19.08;4.72;;;12.10;99.90;;;;;;4993014;28;20081;-86
2023/05/24 06:51:29;;;;;;;17.73;5.03;;;12.10;99.90;;;;;;4995557;28;20080;-85
2023/05/24 06:54:15;;;;;;;20.15;3.50;;;12.20;99.90;;;;;;5024204;28;20053;-84
2023/05/24 06:57:02;;;;;;;17.95;3.60;;;12.30;99.90;;;;;;5008295;28;20057;-85
2023/05/24 06:59:48;;;;;;;19.17;4.22;;;12.40;99.90;;;;;;5025283;28;20081;-86
2023/05/24 07:02:35;;;;;;;25.02;5.03;;;12.60;99.90;;;;;;4992512;28;20058;-83
2023/05/24 07:05:21;;;;;;;17.25;3.85;;;12.60;99.90;;;;;;4992309;28;20054;-82
2023/05/24 07:08:08;;;;;;;20.98;3.95;;;12.60;99.90;;;;;;5009206;28;20057;-81
2023/05/24 07:10:55;;;;;;;20.48;4.03;;;12.60;99.90;;;;;;5008669;28;20058;-83
2023/05/24 07:13:40;;;;;;;16.50;3.63;;;12.60;99.90;;;;;;5009256;28;20049;-83
2023/05/24 07:16:27;;;;;;;16.30;3.60;;;12.60;99.90;;;;;;4991370;28;20141;-82
2023/05/24 07:19:13;;;;;;;23.50;5.22;;;12.70;99.90;;;;;;4992057;28;20128;-81
2023/05/24 07:21:59;;;;;;;21.20;3.58;;;12.70;99.90;;;;;;5009616;28;20086;-82
2023/05/24 07:24:45;;;;;;;20.65;4.22;;;12.80;99.90;;;;;;5010637;28;20088;-83
2023/05/24 07:27:31;;;;;;;14.23;3.72;;;12.80;99.90;;;;;;4994834;28;20054;-84
2023/05/24 07:30:17;;;;;;;19.50;4.20;;;12.90;99.90;;;;;;4991885;28;20065;-82
2023/05/24 07:33:03;;;;;;;14.48;3.33;;;13.10;99.90;;;;;;4992952;28;20054;-82
2023/05/24 07:35:51;;;;;;;11.18;3.47;;;13.00;99.90;;;;;;5012995;28;20073;-84
2023/05/24 07:38:37;;;;;;;25.60;3.75;;;13.00;99.90;;;;;;4995391;28;20145;-84
2023/05/24 07:41:27;;;;;;;19.45;3.97;;;13.00;99.90;;;;;;4996674;28;20617;-81
2023/05/24 07:44:13;;;;;;;14.20;3.65;;;13.10;99.90;;;;;;5011162;28;20046;-86
2023/05/24 07:47:01;;;;;;;16.52;3.83;;;13.10;99.90;;;;;;5013025;28;20410;-84
2023/05/24 07:49:47;;;;;;;12.98;3.35;;;13.30;99.90;;;;;;5013478;28;20140;-84
2023/05/24 07:52:34;;;;;;;17.13;3.60;;;13.70;99.90;;;;;;4995906;28;20467;-82
2023/05/24 07:55:20;;;;;;;12.07;3.08;;;14.10;99.90;;;;;;4996094;28;20410;-83
2023/05/24 07:58:06;;;;;;;17.95;3.90;;;14.40;99.90;;;;;;5011904;28;20537;-82
2023/05/24 08:00:53;;;;;;;14.88;3.40;;;14.70;99.90;;;;;;4994928;28;20050;-84
2023/05/24 08:03:39;;;;;;;15.45;2.95;;;14.70;99.90;;;;;;5011927;28;20141;-83
2023/05/24 08:06:26;;;;;;;15.20;3.78;;;15.00;99.90;;;;;;5011856;28;20058;-82
2023/05/24 08:09:12;;;;;;;15.93;3.00;;;15.10;99.90;;;;;;4994759;28;20050;-81
2023/05/24 08:12:00;;;;;;;16.85;2.97;;;15.20;99.90;;;;;;4995381;28;20050;-83
2023/05/24 08:14:46;;;;;;;12.02;2.35;;;15.40;99.90;;;;;;4994718;28;20065;-83
2023/05/24 08:17:32;;;;;;;15.88;3.35;;;15.50;99.90;;;;;;4995866;28;20896;-82
2023/05/24 08:20:18;;;;;;;14.13;2.92;;;15.80;99.90;;;;;;5014123;28;20050;-82
2023/05/24 08:23:04;;;;;;;14.43;2.90;;;16.10;99.90;;;;;;4995784;28;20042;-82
2023/05/24 08:25:50;;;;;;;14.98;2.88;;;16.40;99.90;;;;;;4993877;28;20477;-85
2023/05/24 08:28:36;;;;;;;10.07;2.78;;;16.60;99.90;;;;;;4995010;28;20049;-83
2023/05/24 08:31:22;;;;;;;15.07;3.45;;;16.50;99.90;;;;;;5010378;28;20054;-83
2023/05/24 08:34:10;;;;;;;14.77;2.67;;;16.60;99.90;;;;;;5011805;28;20486;-83
2023/05/24 08:36:56;;;;;;;15.43;3.33;;;16.30;99.90;;;;;;4994134;28;20801;-85
2023/05/24 08:39:42;;;;;;;13.63;2.90;;;16.10;99.90;;;;;;5012413;28;20122;-83
2023/05/24 08:42:30;;;;;;;11.30;2.72;;;15.80;99.90;;;;;;5012933;28;20446;-84
2023/05/24 08:45:17;;;;;;;17.98;3.53;;;15.70;99.90;;;;;;4993751;28;20141;-83
2023/05/24 08:48:08;;;;;;;15.98;3.50;;;15.50;99.90;;;;;;5011220;28;20108;-87
2023/05/24 08:50:55;;;;;;;16.85;2.83;;;15.60;99.90;;;;;;5011748;28;20101;-82
2023/05/24 08:53:47;;;;;;;15.25;3.15;;;15.80;99.90;;;;;;5012338;28;20060;-83
2023/05/24 08:56:33;;;;;;;19.60;3.38;;;15.90;99.90;;;;;;5011646;28;20049;-85
2023/05/24 08:59:19;;;;;;;18.45;3.65;;;15.60;99.90;;;;;;4994805;28;20197;-83
2023/05/24 09:02:12;;;;;;;12.23;2.88;;;15.50;99.90;;;;;;4993895;28;20060;-85
2023/05/24 09:04:59;;;;;;;17.13;3.17;;;15.50;99.90;;;;;;5012033;28;20060;-82
2023/05/24 09:07:45;;;;;;;11.13;3.10;;;15.50;99.90;;;;;;5011366;28;20510;-84
2023/05/24 09:10:32;;;;;;;14.80;2.70;;;15.50;99.90;;;;;;4993436;28;20112;-84
2023/05/24 09:13:19;;;;;;;15.57;3.58;;;15.40;99.90;;;;;;5011394;28;20488;-83
2023/05/24 09:16:05;;;;;;;17.02;4.55;;;15.40;99.90;;;;;;4994420;28;20085;-84
2023/05/24 09:18:51;;;;;;;15.30;3.00;;;15.40;99.90;;;;;;4995101;28;20058;-83
2023/05/24 09:21:37;;;;;;;17.33;3.42;;;15.30;99.90;;;;;;5011379;28;20049;-84
2023/05/24 09:24:23;;;;;;;16.02;3.97;;;15.30;99.90;;;;;;5011492;28;20062;-83
2023/05/24 09:27:09;;;;;;;14.60;2.50;;;15.20;99.90;;;;;;5010717;28;20065;-85
2023/05/24 09:29:56;;;;;;;20.13;3.85;;;15.30;99.90;;;;;;4994078;28;20888;-82
2023/05/24 09:32:56;;;;;;;20.25;5.65;;;15.40;99.90;;;;;;4998245;28;20056;-82
2023/05/24 09:35:43;;;;;;;18.85;4.03;;;15.20;99.90;;;;;;4993923;28;20494;-82
2023/05/24 09:38:29;;;;;;;13.95;3.20;;;15.30;99.90;;;;;;5011457;28;20100;-82
2023/05/24 09:41:15;;;;;;;14.05;3.10;;;15.30;99.90;;;;;;5010402;28;20058;-82
2023/05/24 09:44:02;;;;;;;12.73;3.25;;;15.10;99.90;;;;;;5009514;28;20104;-85
2023/05/24 09:46:48;;;;;;;13.10;3.78;;;15.20;99.90;;;;;;4993789;28;20108;-82
2023/05/24 09:49:37;;;;;;;14.68;3.10;;;15.30;99.90;;;;;;5010708;28;20569;-82
2023/05/24 09:52:23;;;;;;;13.68;3.17;;;15.60;99.90;;;;;;5010319;28;20057;-83
2023/05/24 09:55:18;;;;;;;13.85;3.25;;;15.70;99.90;;;;;;4992913;28;20054;-82
2023/05/24 09:58:07;;;;;;;15.02;3.30;;;15.80;99.90;;;;;;4993035;28;20147;-82
2023/05/24 10:01:06;;;;;;;14.60;3.22;;;16.10;99.90;;;;;;4993208;28;20067;-85
2023/05/24 10:03:58;;;;;;;13.82;3.28;;;16.50;99.90;;;;;;5011315;28;20532;-82
2023/05/24 10:06:46;;;;;;;19.40;4.20;;;16.60;99.90;;;;;;5010928;28;20506;-85
2023/05/24 10:09:34;;;;;;;12.93;3.70;;;16.60;99.90;;;;;;4994361;28;20471;-84
2023/05/24 10:12:22;;;;;;;12.35;2.70;;;16.60;99.90;;;;;;5010946;28;20049;-84
2023/05/24 10:15:11;;;;;;;14.30;3.17;;;16.60;99.90;;;;;;4992755;28;20046;-85
2023/05/24 10:18:00;;;;;;;15.50;2.83;;;16.60;99.90;;;;;;5010813;28;20045;-83
2023/05/24 10:20:47;;;;;;;14.73;2.85;;;16.80;99.90;;;;;;4993411;28;20108;-81
2023/05/24 10:23:35;;;;;;;13.68;3.28;;;16.90;99.90;;;;;;4980265;28;20085;-82
2023/05/24 10:26:28;;;;;;;19.90;3.75;;;17.00;99.90;;;;;;5010522;28;20061;-83
2023/05/24 10:29:33;;;;;;;17.27;4.03;;;17.20;99.90;;;;;;4979936;28;20050;-88
2023/05/24 10:32:24;;;;;;;9.20;2.75;;;17.30;99.90;;;;;;5010365;28;20573;-88
2023/05/24 10:35:11;;;;;;;17.77;3.08;;;17.40;99.90;;;;;;4992440;28;20060;-84
2023/05/24 10:37:58;;;;;;;13.02;3.75;;;17.70;99.70;;;;;;4992768;28;20057;-87
2023/05/24 10:40:44;;;;;;;14.23;3.45;;;17.80;99.70;;;;;;4996725;28;20045;-88
2023/05/24 10:43:30;;;;;;;13.88;2.88;;;17.80;99.30;;;;;;5009179;28;20057;-84
2023/05/24 10:46:16;;;;;;;16.33;3.45;;;18.10;98.50;;;;;;5011001;28;20052;-88
2023/05/24 10:49:05;;;;;;;13.75;3.95;;;17.90;98.30;;;;;;4979424;28;20454;-86
2023/05/24 10:52:01;;;;;;;12.07;2.80;;;18.00;98.40;;;;;;5010039;28;20368;-88
2023/05/24 10:55:09;;;;;;;13.88;3.63;;;18.20;98.40;;;;;;5010867;28;20133;-89
2023/05/24 10:57:55;;;;;;;12.75;2.88;;;18.60;98.30;;;;;;5008849;28;20061;-89
2023/05/24 11:00:43;;;;;;;12.55;2.85;;;18.80;97.50;;;;;;5007778;28;20056;-86
2023/05/24 11:03:32;;;;;;;13.38;2.33;;;19.00;97.00;;;;;;4979275;28;20486;-86
2023/05/24 11:06:18;;;;;;;15.15;3.70;;;19.00;96.30;;;;;;4991804;28;20050;-85
2023/05/24 11:09:09;;;;;;;13.63;3.05;;;19.30;96.40;;;;;;5010134;28;20049;-86
2023/05/24 11:12:03;;;;;;;11.52;2.80;;;19.30;95.90;;;;;;4992918;28;20090;-83
2023/05/24 11:14:51;;;;;;;15.52;3.13;;;19.50;96.50;;;;;;5009427;28;20049;-87
2023/05/24 11:18:08;;;;;;;13.38;4.60;;;19.70;96.00;;;;;;4992513;28;20061;-85
2023/05/24 11:20:55;;;;;;;13.77;3.67;;;19.70;95.20;;;;;;4991885;28;20045;-85
2023/05/24 11:23:42;;;;;;;13.95;2.85;;;20.00;95.60;;;;;;4992033;28;20124;-84
2023/05/24 11:26:29;;;;;;;9.85;2.45;;;19.90;95.20;;;;;;5009353;28;20414;-85
2023/05/24 11:29:21;;;;;;;15.75;2.92;;;20.20;95.00;;;;;;4990624;28;20765;-87
2023/05/24 11:32:07;;;;;;;17.63;3.28;;;20.20;94.70;;;;;;4991859;28;20108;-85
2023/05/24 11:34:55;;;;;;;12.38;2.58;;;20.40;94.80;;;;;;5009372;28;20050;-84
2023/05/24 11:37:44;;;;;;;10.57;2.65;;;20.40;94.40;;;;;;5009094;28;20136;-84
2023/05/24 11:40:30;;;;;;;13.70;2.60;;;20.70;94.50;;;;;;5009371;28;20139;-86
2023/05/24 11:43:19;;;;;;;15.02;3.10;;;20.80;94.80;;;;;;4991625;28;20089;-85
2023/05/24 11:46:05;;;;;;;14.77;3.15;;;21.00;93.60;;;;;;5009789;28;20104;-85
2023/05/24 11:48:56;;;;;;;14.75;3.65;;;20.90;93.50;;;;;;5009381;28;20152;-87
2023/05/24 11:51:43;;;;;;;9.30;2.72;;;21.00;93.10;;;;;;4992322;28;20085;-85
2023/05/24 11:54:32;;;;;;;12.80;3.05;;;21.00;93.00;;;;;;5009856;28;20585;-86
2023/05/24 11:57:25;;;;;;;9.27;3.03;;;21.50;92.70;;;;;;4990643;28;20083;-84
2023/05/24 12:00:15;;;;;;;14.52;2.97;;;21.30;91.90;;;;;;5009010;28;20057;-86
2023/05/24 12:03:06;;;;;;;14.52;3.03;;;21.40;91.90;;;;;;4992340;28;20139;-82
2023/05/24 12:05:56;;;;;;;13.20;3.10;;;21.50;91.90;;;;;;5010268;28;20049;-87
2023/05/24 12:08:42;;;;;;;12.73;3.58;;;21.50;92.10;;;;;;4991861;28;20058;-87
2023/05/24 12:11:28;;;;;;;8.70;2.58;;;21.80;91.40;;;;;;5008212;28;20049;-88
2023/05/24 12:14:16;;;;;;;9.75;3.00;;;21.90;91.60;;;;;;5008545;28;20494;-85
2023/05/24 12:17:03;;;;;;;12.23;3.20;;;21.80;91.50;;;;;;4990975;28;20536;-86
2023/05/24 12:19:52;;;;;;;8.20;2.60;;;21.90;91.50;;;;;;4993379;28;20100;-86
2023/05/24 12:22:38;;;;;;;11.75;2.97;;;22.10;91.70;;;;;;5011836;28;20192;-85
2023/05/24 12:25:25;;;;;;;12.57;2.97;;;22.10;91.40;;;;;;5012020;28;20723;-87
2023/05/24 12:28:12;;;;;;;12.50;2.88;;;22.50;91.10;;;;;;4995211;28;20053;-87
2023/05/24 12:30:58;;;;;;;11.63;2.97;;;22.80;90.60;;;;;;4994746;28;20060;-87
2023/05/24 12:33:46;;;;;;;12.00;2.63;;;22.50;90.30;;;;;;4994586;28;20096;-84
2023/05/24 12:36:34;;;;;;;10.68;2.80;;;22.30;90.20;;;;;;5012120;28;20395;-87
2023/05/24 12:39:31;;;;;;;10.98;2.85;;;22.50;90.70;;;;;;5012603;28;20418;-86
2023/05/24 12:42:18;;;;;;;13.90;3.47;;;22.80;90.10;;;;;;5011917;28;20132;-87
2023/05/24 12:45:04;;;;;;;13.32;2.63;;;23.20;90.00;;;;;;5012594;28;20054;-83
2023/05/24 12:47:51;;;;;;;14.40;2.95;;;22.90;88.10;;;;;;4993895;28;20133;-88
2023/05/24 12:50:37;;;;;;;14.40;4.30;;;23.20;88.30;;;;;;4994959;28;20140;-86
2023/05/24 12:53:24;;;;;;;11.93;2.40;;;23.60;88.50;;;;;;5012076;28;20050;-88
2023/05/24 12:56:11;;;;;;;12.80;3.25;;;23.50;86.80;;;;;;5012433;28;20058;-84
2023/05/24 12:58:57;;;;;;;16.02;3.05;;;23.30;87.10;;;;;;5016363;28;20061;-85
2023/05/24 13:01:49;;;;;;;10.38;3.22;;;23.30;86.40;;;;;;5026975;28;20061;-86
2023/05/24 13:04:35;;;;;;;12.65;3.10;;;23.70;86.60;;;;;;5027305;28;20060;-84
2023/05/24 13:07:21;;;;;;;9.32;2.40;;;23.80;86.40;;;;;;5019319;28;20085;-81
2023/05/24 13:10:08;;;;;;;12.43;2.38;;;24.10;85.20;;;;;;5012121;28;20050;-82
2023/05/24 13:12:55;;;;;;;10.55;3.05;;;24.20;84.60;;;;;;4993649;28;20486;-84
2023/05/24 13:15:43;;;;;;;9.55;2.40;;;24.10;84.40;;;;;;5010816;28;20057;-86
2023/05/24 13:18:29;;;;;;;11.73;3.13;;;24.60;82.60;;;;;;4993958;28;20092;-83
2023/05/24 13:21:15;;;;;;;11.10;2.78;;;24.50;82.20;;;;;;5010725;28;20057;-83
2023/05/24 13:24:02;;;;;;;14.63;3.10;;;24.50;81.10;;;;;;4994180;28;20437;-85
2023/05/24 13:26:48;;;;;;;9.95;2.72;;;24.50;81.30;;;;;;4993220;28;20491;-83
2023/05/24 13:29:34;;;;;;;11.52;2.78;;;24.70;81.40;;;;;;4994032;28;20050;-82
2023/05/24 13:32:20;;;;;;;12.98;2.83;;;24.70;81.20;;;;;;4980223;28;20041;-82
2023/05/24 13:35:07;;;;;;;10.27;2.75;;;25.00;80.30;;;;;;5011406;28;20417;-82
2023/05/24 13:37:56;;;;;;;13.23;2.88;;;25.00;79.10;;;;;;4997169;28;20439;-83
2023/05/24 13:40:44;;;;;;;9.63;2.33;;;25.40;78.60;;;;;;5011672;28;20429;-83
2023/05/24 13:43:30;;;;;;;11.98;2.63;;;25.70;76.90;;;;;;4994501;28;20116;-81
2023/05/24 13:46:16;;;;;;;8.90;2.90;;;25.30;75.60;;;;;;5010187;28;20395;-83
2023/05/24 13:49:03;;;;;;;9.90;2.88;;;25.10;76.10;;;;;;5009263;28;20497;-83
2023/05/24 13:51:49;;;;;;;12.85;2.80;;;24.90;75.60;;;;;;4993179;28;20057;-84
2023/05/24 13:54:35;;;;;;;15.88;2.83;;;25.20;75.40;;;;;;5011238;28;20064;-81
2023/05/24 13:57:21;;;;;;;15.02;2.92;;;25.60;75.80;;;;;;5009276;28;20056;-81
2023/05/24 14:00:08;;;;;;;13.65;2.70;;;25.40;75.10;;;;;;4992883;28;20104;-81
2023/05/24 14:02:54;;;;;;;12.52;4.60;;;25.50;73.90;;;;;;5011166;28;20042;-82
2023/05/24 14:05:41;;;;;;;9.75;2.83;;;25.90;72.40;;;;;;4992875;28;20116;-82
2023/05/24 14:08:27;;;;;;;12.88;3.20;;;25.80;71.40;;;;;;4992180;28;20069;-81
2023/05/24 14:11:14;;;;;;;10.85;2.20;;;26.00;71.20;;;;;;5010335;28;20152;-82
2023/05/24 14:14:01;;;;;;;11.15;2.45;;;26.50;70.80;;;;;;5010340;28;20049;-83
2023/05/24 14:16:53;;;;;;;10.13;2.40;;;26.80;68.90;;;;;;5009970;28;20049;-83
2023/05/24 14:19:39;;;;;;;10.25;2.67;;;27.10;67.90;;;;;;5011103;28;20056;-83
2023/05/24 14:22:28;;;;;;;10.65;2.95;;;27.30;66.60;;;;;;5011230;28;20168;-84